Time;durP1;ratioP1;P1;durP2;ratioP2;P2;SDS_P1;SDS_P2;PMS_P1;PMS_P2;Temp;Humidity;BMP_temperature;BMP_pressure;BME280_temperature;BME280_humidity;BME280_pressure;Samples;Min_cycle;Max_cycle;Signal;HPM_P1;HPM_P2
2023/12/28 00:00:28;;;;;;;6.20;5.80;;;8.10;99.90;;;;;;5033180;28;20061;-77
2023/12/28 00:02:53;;;;;;;5.88;5.47;;;8.10;99.90;;;;;;5033260;28;20045;-78
2023/12/28 00:05:19;;;;;;;5.72;5.32;;;8.30;99.90;;;;;;5032357;28;20045;-77
2023/12/28 00:07:45;;;;;;;5.82;5.43;;;8.30;99.90;;;;;;5033113;28;20041;-77
2023/12/28 00:10:11;;;;;;;5.47;4.97;;;8.30;99.90;;;;;;5033300;28;20080;-77
2023/12/28 00:12:36;;;;;;;6.57;5.60;;;8.30;99.90;;;;;;5033156;28;20136;-78
2023/12/28 00:15:02;;;;;;;7.45;7.05;;;8.40;99.90;;;;;;5032214;28;20180;-78
2023/12/28 00:17:28;;;;;;;10.30;9.65;;;8.40;99.90;;;;;;5031965;28;20041;-79
2023/12/28 00:19:54;;;;;;;10.07;9.52;;;8.50;99.90;;;;;;5033127;28;20049;-77
2023/12/28 00:22:20;;;;;;;6.28;5.78;;;8.60;99.90;;;;;;5033604;28;20372;-78
2023/12/28 00:24:45;;;;;;;5.63;5.22;;;8.70;99.90;;;;;;5033715;28;20056;-77
2023/12/28 00:27:11;;;;;;;6.75;6.28;;;8.80;99.90;;;;;;5032355;28;20050;-77
2023/12/28 00:29:38;;;;;;;5.82;5.43;;;8.80;99.90;;;;;;5032899;28;20042;-77
2023/12/28 00:32:07;;;;;;;19.73;18.70;;;8.90;99.90;;;;;;5032950;28;20053;-79
2023/12/28 00:34:33;;;;;;;8.55;7.95;;;9.00;99.90;;;;;;5033071;28;20048;-78
2023/12/28 00:36:58;;;;;;;12.63;11.80;;;9.00;99.90;;;;;;5032802;28;20054;-78
2023/12/28 00:39:24;;;;;;;9.07;8.52;;;9.10;99.90;;;;;;5015527;28;20052;-79
2023/12/28 00:41:50;;;;;;;8.05;7.43;;;9.10;99.90;;;;;;5031992;28;20125;-77
2023/12/28 00:44:16;;;;;;;6.10;5.70;;;9.10;99.90;;;;;;5032930;28;20058;-78
2023/12/28 00:46:42;;;;;;;7.93;7.47;;;9.10;99.90;;;;;;5032398;28;20057;-78
2023/12/28 00:49:08;;;;;;;5.90;4.95;;;9.10;99.90;;;;;;5032921;28;20041;-78
2023/12/28 00:51:34;;;;;;;5.47;5.07;;;9.10;99.90;;;;;;5015448;28;20049;-77
2023/12/28 00:54:00;;;;;;;7.93;7.53;;;9.20;99.90;;;;;;5032885;28;20045;-79
2023/12/28 00:56:25;;;;;;;8.60;8.00;;;9.10;99.90;;;;;;5032876;28;20053;-78
2023/12/28 00:58:51;;;;;;;7.32;6.68;;;9.10;99.90;;;;;;5015946;28;20076;-78
2023/12/28 01:01:17;;;;;;;6.70;6.30;;;9.10;99.90;;;;;;5035664;28;20048;-78
2023/12/28 01:03:42;;;;;;;7.65;7.15;;;9.10;99.90;;;;;;5018913;28;20049;-78
2023/12/28 01:06:08;;;;;;;9.00;8.50;;;9.10;99.90;;;;;;5036273;28;20563;-78
2023/12/28 01:08:34;;;;;;;7.20;6.70;;;9.00;99.90;;;;;;5036737;28;20045;-78
2023/12/28 01:11:00;;;;;;;12.02;11.38;;;9.00;99.90;;;;;;5036016;28;20485;-78
2023/12/28 01:13:27;;;;;;;21.42;20.08;;;9.00;99.90;;;;;;5034789;28;20486;-77
2023/12/28 01:15:52;;;;;;;6.25;5.75;;;9.10;99.90;;;;;;5036641;28;20057;-77
2023/12/28 01:18:19;;;;;;;6.22;5.82;;;9.10;99.90;;;;;;5036067;28;20045;-77
2023/12/28 01:20:44;;;;;;;5.88;5.38;;;9.00;99.90;;;;;;5036010;28;20136;-79
2023/12/28 01:23:10;;;;;;;6.32;5.85;;;8.90;99.90;;;;;;5034940;28;20141;-78
2023/12/28 01:25:35;;;;;;;5.43;5.05;;;8.90;99.90;;;;;;5034979;28;20052;-79
2023/12/28 01:28:01;;;;;;;11.50;10.80;;;8.90;99.90;;;;;;5035845;28;20049;-78
2023/12/28 01:30:27;;;;;;;6.60;6.10;;;8.90;99.90;;;;;;5035999;28;20146;-77
2023/12/28 01:32:53;;;;;;;6.28;5.88;;;8.90;99.90;;;;;;5035925;28;20498;-77
2023/12/28 01:35:19;;;;;;;4.63;4.20;;;8.90;99.90;;;;;;5035997;28;20049;-78
2023/12/28 01:37:45;;;;;;;4.80;4.50;;;8.90;99.90;;;;;;5035721;28;20597;-78
2023/12/28 01:40:11;;;;;;;6.03;5.45;;;8.80;99.90;;;;;;5034574;28;20068;-78
2023/12/28 01:42:37;;;;;;;5.68;4.88;;;8.80;99.90;;;;;;5035619;28;20044;-77
2023/12/28 01:45:04;;;;;;;6.38;5.97;;;8.80;99.90;;;;;;5033932;28;20054;-77
2023/12/28 01:47:30;;;;;;;7.65;7.15;;;8.80;99.90;;;;;;5017807;28;20111;-78
2023/12/28 01:49:56;;;;;;;7.32;6.82;;;8.90;99.90;;;;;;5035490;28;20175;-78
2023/12/28 01:52:22;;;;;;;6.35;5.82;;;8.80;99.90;;;;;;5035454;28;20124;-78
2023/12/28 01:54:49;;;;;;;5.88;5.35;;;8.80;99.90;;;;;;5034092;28;20045;-77
2023/12/28 01:57:16;;;;;;;6.05;5.47;;;8.80;99.90;;;;;;5035322;28;20053;-77
2023/12/28 01:59:42;;;;;;;5.20;4.75;;;8.80;99.90;;;;;;5034491;28;20045;-78
2023/12/28 02:02:08;;;;;;;6.85;6.35;;;8.80;99.90;;;;;;5035206;28;20224;-78
2023/12/28 02:04:35;;;;;;;7.45;6.82;;;8.70;99.90;;;;;;5035204;28;20084;-77
2023/12/28 02:07:01;;;;;;;6.78;6.30;;;8.70;99.90;;;;;;5035135;28;20076;-78
2023/12/28 02:09:27;;;;;;;6.18;5.78;;;8.70;99.90;;;;;;5033822;28;20045;-77
2023/12/28 02:11:53;;;;;;;6.05;5.55;;;8.70;99.90;;;;;;5034401;28;20439;-78
2023/12/28 02:14:21;;;;;;;5.65;5.25;;;8.70;99.90;;;;;;5035587;28;20057;-78
2023/12/28 02:16:56;;;;;;;5.05;4.57;;;8.80;99.90;;;;;;5034026;28;20072;-77
2023/12/28 02:19:31;;;;;;;6.00;5.20;;;8.80;99.90;;;;;;5035764;28;20042;-77
2023/12/28 02:21:59;;;;;;;7.80;7.20;;;8.80;99.90;;;;;;5035075;28;20053;-77
2023/12/28 02:24:25;;;;;;;6.78;6.28;;;8.80;99.90;;;;;;5035278;28;20402;-78
2023/12/28 02:26:50;;;;;;;5.70;5.28;;;8.70;99.90;;;;;;5034790;28;20041;-78
2023/12/28 02:29:17;;;;;;;5.90;5.50;;;8.70;99.90;;;;;;5033461;28;20052;-76
2023/12/28 02:31:51;;;;;;;5.15;4.75;;;8.70;99.90;;;;;;5033512;28;20068;-78
2023/12/28 02:34:27;;;;;;;7.88;7.38;;;8.70;99.90;;;;;;5034647;28;20045;-77
2023/12/28 02:36:56;;;;;;;5.30;4.80;;;8.70;99.90;;;;;;5034722;28;20052;-78
2023/12/28 02:39:24;;;;;;;4.90;4.40;;;8.70;99.90;;;;;;5034760;28;20049;-77
2023/12/28 02:41:49;;;;;;;5.45;5.03;;;8.70;99.90;;;;;;5035066;28;20381;-77
2023/12/28 02:44:15;;;;;;;8.35;6.22;;;8.80;99.90;;;;;;5034612;28;20049;-77
2023/12/28 02:46:41;;;;;;;6.28;5.00;;;8.80;99.90;;;;;;5033493;28;20056;-78
2023/12/28 02:49:07;;;;;;;5.53;5.03;;;8.80;99.90;;;;;;5034691;28;20513;-77
2023/12/28 02:51:32;;;;;;;6.93;5.18;;;8.90;99.90;;;;;;5033609;28;20470;-77
2023/12/28 02:53:58;;;;;;;5.13;4.68;;;8.80;99.90;;;;;;5033399;28;20045;-78
2023/12/28 02:56:23;;;;;;;7.47;6.97;;;8.90;99.90;;;;;;5033518;28;20103;-79
2023/12/28 02:58:49;;;;;;;8.95;8.45;;;8.90;99.90;;;;;;5033271;28;20481;-78
2023/12/28 03:01:15;;;;;;;5.07;4.60;;;9.00;99.90;;;;;;5033215;28;20509;-78
2023/12/28 03:03:40;;;;;;;6.40;5.90;;;9.00;99.90;;;;;;5033135;28;20386;-78
2023/12/28 03:06:06;;;;;;;5.95;5.45;;;9.00;99.90;;;;;;5034113;28;20055;-79
2023/12/28 03:08:32;;;;;;;6.90;6.30;;;9.00;99.90;;;;;;5034013;28;20084;-78
2023/12/28 03:10:57;;;;;;;9.48;8.88;;;9.00;99.90;;;;;;5033255;28;20045;-78
2023/12/28 03:13:23;;;;;;;6.90;6.32;;;9.10;99.90;;;;;;5034054;28;20494;-78
2023/12/28 03:15:49;;;;;;;5.70;5.10;;;9.20;99.90;;;;;;5033170;28;20120;-78
2023/12/28 03:18:14;;;;;;;6.13;5.68;;;9.20;99.90;;;;;;5034348;28;20394;-77
2023/12/28 03:20:40;;;;;;;4.90;4.50;;;9.20;99.90;;;;;;5034128;28;20045;-78
2023/12/28 03:23:06;;;;;;;6.88;6.28;;;9.20;99.90;;;;;;5032198;28;20053;-76
2023/12/28 03:25:31;;;;;;;6.00;5.45;;;9.20;99.90;;;;;;5033529;28;20119;-77
2023/12/28 03:27:57;;;;;;;6.78;6.18;;;9.20;99.90;;;;;;5033780;28;20395;-77
2023/12/28 03:30:23;;;;;;;11.40;10.80;;;9.30;99.90;;;;;;5032446;28;20506;-76
2023/12/28 03:32:48;;;;;;;5.55;5.10;;;9.20;99.90;;;;;;5032424;28;20049;-76
2023/12/28 03:35:14;;;;;;;5.93;5.53;;;9.30;99.90;;;;;;5033596;28;20049;-76
2023/12/28 03:37:40;;;;;;;10.13;9.45;;;9.30;99.90;;;;;;5033555;28;20156;-76
2023/12/28 03:40:06;;;;;;;8.05;7.20;;;9.30;99.90;;;;;;5034282;28;20049;-75
2023/12/28 03:42:32;;;;;;;4.90;4.60;;;9.40;99.90;;;;;;5033596;28;20088;-76
2023/12/28 03:44:57;;;;;;;5.57;5.18;;;9.40;99.90;;;;;;5032311;28;20092;-76
2023/12/28 03:47:24;;;;;;;6.28;5.75;;;9.30;99.90;;;;;;5033817;28;20417;-76
2023/12/28 03:49:49;;;;;;;5.90;5.43;;;9.30;99.90;;;;;;5033502;28;20045;-76
2023/12/28 03:52:15;;;;;;;8.60;8.00;;;9.30;99.90;;;;;;5033703;28;20052;-76
2023/12/28 03:54:41;;;;;;;7.05;6.55;;;9.40;99.90;;;;;;5033396;28;20041;-76
2023/12/28 03:57:06;;;;;;;7.50;6.13;;;9.40;99.90;;;;;;5032776;28;20045;-76
2023/12/28 03:59:32;;;;;;;5.90;5.38;;;9.30;99.90;;;;;;5033416;28;20053;-77
2023/12/28 04:01:58;;;;;;;5.97;5.50;;;9.40;99.90;;;;;;5032697;28;20042;-75
2023/12/28 04:04:23;;;;;;;9.10;8.50;;;9.40;99.90;;;;;;5033189;28;20493;-77
2023/12/28 04:06:49;;;;;;;9.60;8.98;;;9.50;99.90;;;;;;5033372;28;20154;-77
2023/12/28 04:09:14;;;;;;;6.22;5.82;;;9.50;99.90;;;;;;5033316;28;20050;-76
2023/12/28 04:11:40;;;;;;;5.88;5.47;;;9.50;99.90;;;;;;5033231;28;20045;-76
2023/12/28 04:14:06;;;;;;;5.35;4.90;;;9.40;99.90;;;;;;5032373;28;20053;-75
2023/12/28 04:16:32;;;;;;;6.15;5.63;;;9.50;99.90;;;;;;5033549;28;20045;-76
2023/12/28 04:18:57;;;;;;;6.60;6.00;;;9.50;99.90;;;;;;5033201;28;20103;-76
2023/12/28 04:21:23;;;;;;;10.00;9.40;;;9.40;99.90;;;;;;5033227;28;20042;-76
2023/12/28 04:23:49;;;;;;;6.22;5.82;;;9.40;99.90;;;;;;5032242;28;20077;-75
2023/12/28 04:26:19;;;;;;;12.57;11.77;;;9.50;99.90;;;;;;5032490;28;20540;-76
2023/12/28 04:28:44;;;;;;;10.90;10.13;;;9.50;99.90;;;;;;5033192;28;20050;-76
2023/12/28 04:31:10;;;;;;;7.15;6.60;;;9.60;99.90;;;;;;5033554;28;20048;-76
2023/12/28 04:33:36;;;;;;;7.47;7.07;;;9.50;99.90;;;;;;5035369;28;20045;-75
2023/12/28 04:36:05;;;;;;;6.00;5.55;;;9.50;99.90;;;;;;5036957;28;20463;-76
2023/12/28 04:38:31;;;;;;;6.20;5.65;;;9.50;99.90;;;;;;5036588;28;20055;-77
2023/12/28 04:40:57;;;;;;;12.07;11.40;;;9.60;99.90;;;;;;5036797;28;20049;-77
2023/12/28 04:43:26;;;;;;;6.15;5.65;;;9.60;99.90;;;;;;5035372;28;20172;-77
2023/12/28 04:45:51;;;;;;;5.13;4.00;;;9.60;99.90;;;;;;5036599;28;20386;-77
2023/12/28 04:48:21;;;;;;;6.28;5.78;;;9.50;99.90;;;;;;5037448;28;20053;-77
2023/12/28 04:50:50;;;;;;;6.82;4.55;;;9.60;99.90;;;;;;5036592;28;20092;-77
2023/12/28 04:53:15;;;;;;;11.10;10.40;;;9.50;99.90;;;;;;5036316;28;20517;-77
2023/12/28 04:55:41;;;;;;;5.53;4.20;;;9.50;99.90;;;;;;5036342;28;20046;-77
2023/12/28 04:58:07;;;;;;;6.65;5.30;;;9.50;99.90;;;;;;5035515;28;20053;-77
2023/12/28 05:00:33;;;;;;;8.77;8.15;;;9.60;99.90;;;;;;5035427;28;20122;-76
2023/12/28 05:02:58;;;;;;;6.43;5.82;;;9.60;99.90;;;;;;5035230;28;20528;-77
2023/12/28 05:05:24;;;;;;;7.00;6.38;;;9.70;99.90;;;;;;5036352;28;20045;-76
2023/12/28 05:07:50;;;;;;;8.32;6.80;;;9.70;99.90;;;;;;5035308;28;20508;-77
2023/12/28 05:10:15;;;;;;;8.73;8.00;;;9.60;99.90;;;;;;5036206;28;20057;-77
2023/12/28 05:12:41;;;;;;;6.93;6.30;;;9.60;99.90;;;;;;5036781;28;20045;-77
2023/12/28 05:15:07;;;;;;;9.82;8.75;;;9.70;99.90;;;;;;5034855;28;20371;-76
2023/12/28 05:17:32;;;;;;;7.13;6.32;;;9.70;99.90;;;;;;5036141;28;20052;-77
2023/12/28 05:19:58;;;;;;;6.63;6.18;;;9.70;99.90;;;;;;5035134;28;20131;-77
2023/12/28 05:22:24;;;;;;;4.38;3.88;;;9.70;99.90;;;;;;5035074;28;20092;-77
2023/12/28 05:24:50;;;;;;;7.32;6.72;;;9.80;99.90;;;;;;5035930;28;20041;-78
2023/12/28 05:27:15;;;;;;;7.88;5.53;;;9.80;99.90;;;;;;5035907;28;20136;-77
2023/12/28 05:29:41;;;;;;;7.85;5.45;;;9.80;99.90;;;;;;5034898;28;20140;-77
2023/12/28 05:32:07;;;;;;;5.65;5.22;;;9.80;99.90;;;;;;5034810;28;20057;-77
2023/12/28 05:34:32;;;;;;;6.85;4.80;;;9.80;99.90;;;;;;5036561;28;20128;-76
2023/12/28 05:36:58;;;;;;;8.10;7.50;;;9.90;99.90;;;;;;5036059;28;20052;-76
2023/12/28 05:39:24;;;;;;;7.20;4.63;;;9.90;99.90;;;;;;5034756;28;20392;-76
2023/12/28 05:41:50;;;;;;;12.82;11.82;;;9.90;99.90;;;;;;5034496;28;20092;-77
2023/12/28 05:44:17;;;;;;;6.30;5.45;;;9.90;99.90;;;;;;5033986;28;20512;-77
2023/12/28 05:46:43;;;;;;;7.53;4.80;;;10.00;99.90;;;;;;5035433;28;20162;-76
2023/12/28 05:49:08;;;;;;;8.32;5.53;;;10.00;99.90;;;;;;5036327;28;20501;-77
2023/12/28 05:51:39;;;;;;;6.53;5.82;;;10.00;99.90;;;;;;5035462;28;20049;-78
2023/12/28 05:54:05;;;;;;;8.82;8.02;;;10.10;99.90;;;;;;5034240;28;20486;-77
2023/12/28 05:56:31;;;;;;;7.88;7.18;;;10.00;99.90;;;;;;5035183;28;20124;-77
2023/12/28 05:58:56;;;;;;;6.82;3.95;;;10.10;99.90;;;;;;5035333;28;20104;-77
2023/12/28 06:01:22;;;;;;;7.68;6.97;;;10.10;99.90;;;;;;5036153;28;20369;-77
2023/12/28 06:03:50;;;;;;;4.85;4.30;;;10.10;99.90;;;;;;5034122;28;20118;-77
2023/12/28 06:06:16;;;;;;;6.43;4.78;;;10.10;99.90;;;;;;5035182;28;20132;-77
2023/12/28 06:08:42;;;;;;;5.75;4.60;;;10.10;99.90;;;;;;5034016;28;20049;-77
2023/12/28 06:11:07;;;;;;;6.53;5.85;;;10.10;99.90;;;;;;5035068;28;20107;-77
2023/12/28 06:13:33;;;;;;;5.75;4.43;;;10.20;99.90;;;;;;5035049;28;20132;-76
2023/12/28 06:15:59;;;;;;;7.95;5.55;;;10.20;99.90;;;;;;5034262;28;20049;-76
2023/12/28 06:18:24;;;;;;;9.88;8.43;;;10.20;99.90;;;;;;5033802;28;20050;-77
2023/12/28 06:20:50;;;;;;;6.38;5.80;;;10.20;99.90;;;;;;5017606;28;20546;-77
2023/12/28 06:23:16;;;;;;;6.72;5.22;;;10.20;99.90;;;;;;5034880;28;20501;-76
2023/12/28 06:25:42;;;;;;;8.75;8.05;;;10.20;99.90;;;;;;5033788;28;20042;-77
2023/12/28 06:28:07;;;;;;;11.05;8.85;;;10.30;99.90;;;;;;5033822;28;20057;-76
2023/12/28 06:30:33;;;;;;;10.25;9.27;;;10.30;99.90;;;;;;5034778;28;20080;-77
2023/12/28 06:32:59;;;;;;;5.45;4.95;;;10.30;99.90;;;;;;5017209;28;20049;-76
2023/12/28 06:35:24;;;;;;;8.30;4.45;;;10.30;99.90;;;;;;5033463;28;20084;-76
2023/12/28 06:37:50;;;;;;;6.57;4.75;;;10.30;99.90;;;;;;5035118;28;20041;-77
2023/12/28 06:40:16;;;;;;;7.90;7.10;;;10.30;99.90;;;;;;5035317;28;20049;-76
2023/12/28 06:42:43;;;;;;;6.45;5.53;;;10.40;99.90;;;;;;5033262;28;20183;-78
2023/12/28 06:45:10;;;;;;;23.25;21.92;;;10.40;99.90;;;;;;5035078;28;20062;-77
2023/12/28 06:47:35;;;;;;;16.17;15.18;;;10.50;99.90;;;;;;5034439;28;20053;-76
2023/12/28 06:50:01;;;;;;;8.57;7.97;;;10.50;99.90;;;;;;5034456;28;20383;-77
2023/12/28 06:52:27;;;;;;;7.18;5.03;;;10.50;99.90;;;;;;5034888;28;20056;-77
2023/12/28 06:54:53;;;;;;;7.28;5.80;;;10.50;99.90;;;;;;5033946;28;20394;-77
2023/12/28 06:57:19;;;;;;;9.68;8.90;;;10.50;99.90;;;;;;5016716;28;20064;-76
2023/12/28 06:59:44;;;;;;;12.05;10.98;;;10.40;99.90;;;;;;5034700;28;20124;-76
2023/12/28 07:02:10;;;;;;;9.13;5.97;;;10.50;99.90;;;;;;5034219;28;20057;-77
2023/12/28 07:04:36;;;;;;;10.93;10.10;;;10.50;99.90;;;;;;5034309;28;20108;-76
2023/12/28 07:07:02;;;;;;;5.85;5.32;;;10.50;99.90;;;;;;5034554;28;20068;-77
2023/12/28 07:09:27;;;;;;;7.68;5.72;;;10.60;99.90;;;;;;5034058;28;20053;-76
2023/12/28 07:11:53;;;;;;;11.20;10.38;;;10.60;99.90;;;;;;5032843;28;20049;-81
2023/12/28 07:14:18;;;;;;;9.27;4.63;;;10.50;99.90;;;;;;5016452;28;20496;-82
2023/12/28 07:16:45;;;;;;;8.10;7.32;;;10.60;99.90;;;;;;5033069;28;20482;-81
2023/12/28 07:19:11;;;;;;;8.52;5.65;;;10.60;99.90;;;;;;5032801;28;20141;-82
2023/12/28 07:21:36;;;;;;;6.43;5.18;;;10.60;99.90;;;;;;5016483;28;20084;-80
2023/12/28 07:24:02;;;;;;;7.40;6.63;;;10.60;99.90;;;;;;5033036;28;20049;-82
2023/12/28 07:26:28;;;;;;;18.45;17.35;;;10.60;99.90;;;;;;5033808;28;20075;-81
2023/12/28 07:28:54;;;;;;;10.77;7.97;;;10.60;99.90;;;;;;5016694;28;20072;-81
2023/12/28 07:31:27;;;;;;;7.05;3.70;;;10.60;99.90;;;;;;5016339;28;20045;-82
2023/12/28 07:33:54;;;;;;;8.65;6.93;;;10.70;99.90;;;;;;5016396;28;20037;-76
2023/12/28 07:36:20;;;;;;;4.80;4.25;;;10.60;99.90;;;;;;5033449;28;20057;-76
2023/12/28 07:38:46;;;;;;;6.95;4.28;;;10.60;99.90;;;;;;5033561;28;20144;-77
2023/12/28 07:41:12;;;;;;;7.45;3.70;;;10.60;99.90;;;;;;5034418;28;20124;-76
2023/12/28 07:43:37;;;;;;;9.32;5.13;;;10.60;99.90;;;;;;5033357;28;20042;-77
2023/12/28 07:46:03;;;;;;;8.40;7.60;;;10.60;99.90;;;;;;5033639;28;20548;-77
2023/12/28 07:48:30;;;;;;;8.68;6.85;;;10.60;99.90;;;;;;5032374;28;20049;-76
2023/12/28 07:50:56;;;;;;;8.55;7.57;;;10.60;99.90;;;;;;5033337;28;20462;-77
2023/12/28 07:53:22;;;;;;;9.80;9.07;;;10.60;99.90;;;;;;5033204;28;20088;-76
2023/12/28 07:55:48;;;;;;;5.20;3.65;;;10.60;99.90;;;;;;5032289;28;20081;-76
2023/12/28 07:58:15;;;;;;;10.95;4.03;;;10.60;99.90;;;;;;5032375;28;20056;-76
2023/12/28 08:00:40;;;;;;;18.90;17.77;;;10.60;99.90;;;;;;5032898;28;20085;-76
2023/12/28 08:03:06;;;;;;;11.18;10.07;;;10.60;99.90;;;;;;5033471;28;20065;-76
2023/12/28 08:05:32;;;;;;;7.15;6.30;;;10.70;99.90;;;;;;5032885;28;20045;-76
2023/12/28 08:07:58;;;;;;;7.35;6.72;;;10.70;99.90;;;;;;5033107;28;20053;-76
2023/12/28 08:10:23;;;;;;;6.22;3.78;;;10.70;99.90;;;;;;5003495;28;20049;-75
2023/12/28 08:12:49;;;;;;;8.68;3.70;;;10.60;99.90;;;;;;5037445;28;20046;-76
2023/12/28 08:15:15;;;;;;;7.15;4.72;;;10.60;99.90;;;;;;5036614;28;20045;-77
2023/12/28 08:17:40;;;;;;;7.88;4.22;;;10.60;99.90;;;;;;5036718;28;20037;-76
2023/12/28 08:20:07;;;;;;;8.65;3.72;;;10.60;99.90;;;;;;5035946;28;20056;-76
2023/12/28 08:22:33;;;;;;;11.63;4.97;;;10.60;99.90;;;;;;5036992;28;20053;-76
2023/12/28 08:24:59;;;;;;;8.13;6.13;;;10.60;99.90;;;;;;5036950;28;20046;-78
2023/12/28 08:27:24;;;;;;;8.95;5.72;;;10.60;99.90;;;;;;5036288;28;20382;-78
2023/12/28 08:29:50;;;;;;;10.70;9.82;;;10.70;99.90;;;;;;5019740;28;20049;-76
2023/12/28 08:32:17;;;;;;;17.13;15.75;;;10.70;99.90;;;;;;5036933;28;20470;-76
2023/12/28 08:34:43;;;;;;;8.73;8.02;;;10.70;99.90;;;;;;5019255;28;20127;-76
2023/12/28 08:37:09;;;;;;;8.38;5.68;;;10.70;99.90;;;;;;5036823;28;20118;-77
2023/12/28 08:39:34;;;;;;;8.27;7.57;;;10.70;99.90;;;;;;5019284;28;20077;-76
2023/12/28 08:42:00;;;;;;;8.55;7.43;;;10.70;99.90;;;;;;5019181;28;20467;-77
2023/12/28 08:44:26;;;;;;;8.88;7.15;;;10.70;99.90;;;;;;5035432;28;20057;-76
2023/12/28 08:46:52;;;;;;;8.07;4.63;;;10.70;99.90;;;;;;5035172;28;20092;-76
2023/12/28 08:49:17;;;;;;;9.85;5.55;;;10.70;99.90;;;;;;5035587;28;20053;-77
2023/12/28 08:51:43;;;;;;;10.55;5.70;;;10.70;99.90;;;;;;5036402;28;20045;-76
2023/12/28 08:54:09;;;;;;;10.63;7.70;;;10.70;99.90;;;;;;5036970;28;20042;-75
2023/12/28 08:56:35;;;;;;;7.47;4.38;;;10.80;99.90;;;;;;5035432;28;20129;-77
2023/12/28 08:59:01;;;;;;;8.80;5.70;;;10.80;99.90;;;;;;5035553;28;20053;-78
2023/12/28 09:01:29;;;;;;;14.40;12.98;;;10.70;99.90;;;;;;5036376;28;20072;-76
2023/12/28 09:03:55;;;;;;;7.53;5.97;;;10.70;99.90;;;;;;5036790;28;20047;-77
2023/12/28 09:06:21;;;;;;;11.30;8.68;;;10.70;99.90;;;;;;5003270;28;20053;-80
2023/12/28 09:08:50;;;;;;;11.48;6.45;;;10.80;99.90;;;;;;5036221;28;20057;-81
2023/12/28 09:11:16;;;;;;;10.63;5.57;;;10.70;99.90;;;;;;5036115;28;20088;-80
2023/12/28 09:13:42;;;;;;;8.40;7.55;;;10.70;99.90;;;;;;5018530;28;20041;-81
2023/12/28 09:16:11;;;;;;;6.35;3.83;;;10.70;99.90;;;;;;5018314;28;20052;-80
2023/12/28 09:18:38;;;;;;;6.97;4.53;;;10.70;99.90;;;;;;5035210;28;20042;-80
2023/12/28 09:21:05;;;;;;;14.77;13.60;;;10.70;99.90;;;;;;5033935;28;20088;-80
2023/12/28 09:23:31;;;;;;;11.38;9.75;;;10.70;99.90;;;;;;5018576;28;20054;-78
2023/12/28 09:25:58;;;;;;;9.35;6.13;;;10.70;99.90;;;;;;5035685;28;20049;-79
2023/12/28 09:28:24;;;;;;;8.60;3.95;;;10.80;99.90;;;;;;5035848;28;20045;-80
2023/12/28 09:30:50;;;;;;;9.95;4.70;;;10.70;99.90;;;;;;5019095;28;20076;-79
2023/12/28 09:33:16;;;;;;;7.80;4.20;;;10.70;99.90;;;;;;5018435;28;20079;-78
2023/12/28 09:35:42;;;;;;;12.25;4.75;;;10.70;99.90;;;;;;5034765;28;20397;-76
2023/12/28 09:38:08;;;;;;;9.35;4.80;;;10.70;99.90;;;;;;5018145;28;20128;-79
2023/12/28 09:40:36;;;;;;;11.48;5.55;;;10.80;99.90;;;;;;5034542;28;20438;-77
2023/12/28 09:43:27;;;;;;;8.48;7.40;;;10.70;99.90;;;;;;5034579;28;20509;-78
2023/12/28 09:45:56;;;;;;;8.00;7.05;;;10.80;99.90;;;;;;5018686;28;20049;-78
2023/12/28 09:48:22;;;;;;;14.68;13.52;;;10.80;99.90;;;;;;5034668;28;20140;-79
2023/12/28 09:50:55;;;;;;;6.10;3.88;;;10.90;99.90;;;;;;5034183;28;20128;-77
2023/12/28 09:53:22;;;;;;;17.05;15.63;;;10.90;99.90;;;;;;5033992;28;20133;-77
2023/12/28 09:55:49;;;;;;;12.02;10.50;;;10.90;99.90;;;;;;5034638;28;20465;-77
2023/12/28 09:58:18;;;;;;;7.25;4.53;;;10.90;99.90;;;;;;5035098;28;20041;-78
2023/12/28 10:00:45;;;;;;;8.27;7.43;;;10.90;99.90;;;;;;5035198;28;20050;-78
2023/12/28 10:03:15;;;;;;;10.88;5.57;;;10.90;99.90;;;;;;5017939;28;20053;-77
2023/12/28 10:05:41;;;;;;;9.25;5.75;;;11.00;99.90;;;;;;5034259;28;20041;-78
2023/12/28 10:08:08;;;;;;;12.38;11.27;;;11.00;99.90;;;;;;5034149;28;20053;-79
2023/12/28 10:10:34;;;;;;;9.23;4.78;;;11.00;99.90;;;;;;5034721;28;20049;-79
2023/12/28 10:13:00;;;;;;;7.45;5.78;;;10.90;99.90;;;;;;5034782;28;20133;-78
2023/12/28 10:15:26;;;;;;;6.28;5.68;;;10.90;99.90;;;;;;5034859;28;20132;-77
2023/12/28 10:17:52;;;;;;;9.85;5.45;;;10.90;99.90;;;;;;5033701;28;20128;-77
2023/12/28 10:20:18;;;;;;;10.63;6.53;;;10.90;99.90;;;;;;5018258;28;20049;-78
2023/12/28 10:22:44;;;;;;;5.60;4.30;;;10.80;99.90;;;;;;5033383;28;20398;-79
2023/12/28 10:25:11;;;;;;;6.45;3.70;;;10.80;99.90;;;;;;5033518;28;20068;-78
2023/12/28 10:27:43;;;;;;;6.97;4.70;;;10.80;99.90;;;;;;5033796;28;20519;-77
2023/12/28 10:30:12;;;;;;;7.80;5.78;;;10.80;99.90;;;;;;5033537;28;20127;-76
2023/12/28 10:32:41;;;;;;;8.13;5.57;;;10.90;99.90;;;;;;5033635;28;20057;-77
2023/12/28 10:35:08;;;;;;;9.73;6.82;;;10.90;99.90;;;;;;5033337;28;20041;-78
2023/12/28 10:37:35;;;;;;;9.77;5.60;;;10.90;99.90;;;;;;5033774;28;20498;-76
2023/12/28 10:40:06;;;;;;;11.23;4.40;;;10.90;99.90;;;;;;5034073;28;20045;-79
2023/12/28 10:42:37;;;;;;;7.32;4.47;;;11.00;99.90;;;;;;5033753;28;20045;-78
2023/12/28 10:45:09;;;;;;;14.95;13.70;;;10.90;99.90;;;;;;5032910;28;20056;-77
2023/12/28 10:47:43;;;;;;;9.35;4.65;;;11.00;99.90;;;;;;5034860;28;20366;-78
2023/12/28 10:50:11;;;;;;;8.52;5.00;;;10.90;99.90;;;;;;5034425;28;20076;-78
2023/12/28 10:52:39;;;;;;;5.45;3.70;;;10.90;99.90;;;;;;5033723;28;20107;-78
2023/12/28 10:55:29;;;;;;;13.85;6.90;;;10.90;99.90;;;;;;5034608;28;20056;-77
2023/12/28 10:57:55;;;;;;;10.85;10.00;;;10.80;99.90;;;;;;5034069;28;20054;-78
2023/12/28 11:00:24;;;;;;;6.53;4.63;;;10.80;99.90;;;;;;5033064;28;20119;-79
2023/12/28 11:02:58;;;;;;;10.95;9.85;;;10.80;99.90;;;;;;5033225;28;20111;-77
2023/12/28 11:05:24;;;;;;;10.25;9.45;;;10.80;99.90;;;;;;5033103;28;20501;-79
2023/12/28 11:07:56;;;;;;;7.45;4.00;;;10.70;99.90;;;;;;5016509;28;20060;-80
2023/12/28 11:10:24;;;;;;;9.10;4.47;;;10.70;99.90;;;;;;5034614;28;20103;-78
2023/12/28 11:12:53;;;;;;;8.57;6.75;;;10.70;99.90;;;;;;5032796;28;20049;-78
2023/12/28 11:15:19;;;;;;;9.05;4.53;;;10.70;99.90;;;;;;5032823;28;20076;-80
2023/12/28 11:17:45;;;;;;;8.50;6.53;;;10.60;99.90;;;;;;5032847;28;20048;-80
2023/12/28 11:20:11;;;;;;;8.82;4.88;;;10.70;99.90;;;;;;5032605;28;20053;-78
2023/12/28 11:22:38;;;;;;;9.80;6.65;;;10.70;99.90;;;;;;5033248;28;20422;-76
2023/12/28 11:25:07;;;;;;;8.63;7.32;;;10.60;99.90;;;;;;5034298;28;20092;-78
2023/12/28 11:27:36;;;;;;;12.65;11.55;;;10.60;99.90;;;;;;5033757;28;20068;-76
2023/12/28 11:30:04;;;;;;;8.07;4.93;;;10.60;99.90;;;;;;5032717;28;20386;-76
2023/12/28 11:32:35;;;;;;;13.27;12.20;;;10.60;99.90;;;;;;5032515;28;20139;-76
2023/12/28 11:35:01;;;;;;;8.18;7.25;;;10.60;99.90;;;;;;5032483;28;20042;-76
2023/12/28 11:37:29;;;;;;;10.48;5.10;;;10.70;99.90;;;;;;5032667;28;20052;-76
2023/12/28 11:39:57;;;;;;;9.95;6.43;;;10.70;99.90;;;;;;5032377;28;20053;-77
2023/12/28 11:42:23;;;;;;;7.30;4.88;;;10.70;99.90;;;;;;5031883;28;20232;-76
2023/12/28 11:44:56;;;;;;;15.13;13.93;;;10.80;99.90;;;;;;5032010;28;20096;-76
2023/12/28 11:47:24;;;;;;;7.13;5.55;;;10.80;99.90;;;;;;5033180;28;20143;-78
2023/12/28 11:49:54;;;;;;;11.88;10.75;;;10.90;99.90;;;;;;5033251;28;20053;-77
2023/12/28 11:52:28;;;;;;;12.45;11.07;;;10.90;99.90;;;;;;5032412;28;20107;-77
2023/12/28 11:54:55;;;;;;;10.50;8.77;;;10.90;99.90;;;;;;5032130;28;20461;-77
2023/12/28 11:57:21;;;;;;;9.93;7.05;;;10.90;99.90;;;;;;5032681;28;20133;-77
2023/12/28 11:59:59;;;;;;;7.82;3.72;;;10.90;99.90;;;;;;5016052;28;20088;-76
2023/12/28 12:02:26;;;;;;;11.75;9.90;;;10.80;99.90;;;;;;5033080;28;20076;-76
2023/12/28 12:04:53;;;;;;;13.25;11.88;;;10.80;99.90;;;;;;5033312;28;20041;-76
2023/12/28 12:07:19;;;;;;;8.35;5.65;;;10.80;99.90;;;;;;5033339;28;20049;-76
2023/12/28 12:09:45;;;;;;;6.97;6.13;;;10.80;99.90;;;;;;5032295;28;20099;-76
2023/12/28 12:12:11;;;;;;;10.75;7.95;;;10.80;99.90;;;;;;5032246;28;20479;-76
2023/12/28 12:14:37;;;;;;;11.77;10.57;;;10.70;99.90;;;;;;5032472;28;20049;-77
2023/12/28 12:17:03;;;;;;;4.40;3.88;;;10.70;99.90;;;;;;5033089;28;20041;-77
2023/12/28 12:19:29;;;;;;;10.90;10.02;;;10.70;99.90;;;;;;5032934;28;20128;-77
2023/12/28 12:21:56;;;;;;;9.07;4.53;;;10.80;99.90;;;;;;5033224;28;20132;-76
2023/12/28 12:24:23;;;;;;;12.57;10.20;;;10.60;99.90;;;;;;5033087;28;20042;-77
2023/12/28 12:26:52;;;;;;;9.25;4.28;;;10.60;99.90;;;;;;5031923;28;20072;-77
2023/12/28 12:29:19;;;;;;;13.40;6.22;;;10.50;99.90;;;;;;5032966;28;20371;-77
2023/12/28 12:31:47;;;;;;;8.73;4.30;;;10.50;99.90;;;;;;5031618;28;20061;-76
2023/12/28 12:34:16;;;;;;;7.38;6.72;;;10.50;99.90;;;;;;5031641;28;20483;-77
2023/12/28 12:36:42;;;;;;;8.43;7.60;;;10.50;99.90;;;;;;5031851;28;20438;-76
2023/12/28 12:39:11;;;;;;;6.00;5.15;;;10.50;99.90;;;;;;5032653;28;20138;-77
2023/12/28 12:41:37;;;;;;;11.68;6.88;;;10.50;99.90;;;;;;5031617;28;20049;-77
2023/12/28 12:44:04;;;;;;;11.82;10.63;;;10.60;99.90;;;;;;5031840;28;20346;-77